createdAt,value
2023-04-02T00:01:24.070Z,11.63
2023-04-02T00:03:50.551Z,9.25
2023-04-02T00:06:26.341Z,12.10
2023-04-02T00:08:52.913Z,9.40
2023-04-02T00:11:31.078Z,7.03
2023-04-02T00:14:01.477Z,9.87
2023-04-02T00:16:29.013Z,8.25
2023-04-02T00:19:01.412Z,13.85
2023-04-02T00:21:30.891Z,8.60
2023-04-02T00:24:00.869Z,10.63
2023-04-02T00:26:37.168Z,11.17
2023-04-02T00:29:07.722Z,8.50
2023-04-02T00:31:37.760Z,12.32
2023-04-02T00:34:07.018Z,9.07
2023-04-02T00:36:34.651Z,7.53
2023-04-02T00:39:04.273Z,7.17
2023-04-02T00:41:32.413Z,8.88
2023-04-02T00:43:59.539Z,11.40
2023-04-02T00:46:32.901Z,9.95
2023-04-02T00:49:12.586Z,11.65
2023-04-02T00:51:44.434Z,10.23
2023-04-02T00:54:13.057Z,8.77
2023-04-02T00:56:46.177Z,10.52
2023-04-02T00:59:42.984Z,8.77
2023-04-02T01:02:15.603Z,10.18
2023-04-02T01:04:42.129Z,10.00
2023-04-02T01:07:11.132Z,13.13
2023-04-02T01:10:18.129Z,10.38
2023-04-02T01:12:56.013Z,8.25
2023-04-02T01:15:32.596Z,11.15
2023-04-02T01:18:33.262Z,11.10
2023-04-02T01:21:08.193Z,8.38
2023-04-02T01:23:57.784Z,12.13
2023-04-02T01:26:34.915Z,10.45
2023-04-02T01:29:12.033Z,9.45
2023-04-02T01:31:39.572Z,8.97
2023-04-02T01:34:09.777Z,10.88
2023-04-02T01:36:54.784Z,9.60
2023-04-02T01:39:31.133Z,11.38
2023-04-02T01:41:57.643Z,10.60
2023-04-02T01:44:32.210Z,11.50
2023-04-02T01:46:59.428Z,10.35
2023-04-02T01:49:26.324Z,14.25
2023-04-02T01:51:55.255Z,10.55
2023-04-02T01:54:22.959Z,10.65
2023-04-02T01:56:51.597Z,11.50
2023-04-02T01:59:21.342Z,13.07
2023-04-02T02:02:14.689Z,9.40
2023-04-02T02:04:41.574Z,10.13
2023-04-02T02:07:15.726Z,12.20
2023-04-02T02:09:43.501Z,9.93
2023-04-02T02:12:13.977Z,8.45
2023-04-02T02:14:46.854Z,14.02
2023-04-02T02:17:27.457Z,10.70
2023-04-02T02:19:59.583Z,12.00
2023-04-02T02:22:36.060Z,9.87
2023-04-02T02:25:06.603Z,10.38
2023-04-02T02:27:42.990Z,14.40
2023-04-02T02:30:21.020Z,13.38
2023-04-02T02:33:19.272Z,14.77
2023-04-02T02:35:59.735Z,9.13
2023-04-02T02:38:44.297Z,11.43
2023-04-02T02:41:20.910Z,7.45
2023-04-02T02:43:59.591Z,11.15
2023-04-02T02:46:29.150Z,10.65
2023-04-02T02:48:57.655Z,11.43
2023-04-02T02:51:42.365Z,12.63
2023-04-02T02:54:09.058Z,11.43
2023-04-02T02:56:42.133Z,11.00
2023-04-02T02:59:10.873Z,12.38
2023-04-02T03:01:38.283Z,14.93
2023-04-02T03:04:05.176Z,13.80
2023-04-02T03:06:31.810Z,10.60
2023-04-02T03:09:16.084Z,13.50
2023-04-02T03:12:09.913Z,10.85
2023-04-02T03:15:05.587Z,12.63
2023-04-02T03:18:13.443Z,14.57
2023-04-02T03:20:55.524Z,11.77
2023-04-02T03:23:27.334Z,12.02
2023-04-02T03:26:04.794Z,13.25
2023-04-02T03:28:34.517Z,15.10
2023-04-02T03:31:08.258Z,13.13
2023-04-02T03:33:44.332Z,11.77
2023-04-02T03:36:32.075Z,8.25
2023-04-02T03:39:12.176Z,10.07
2023-04-02T03:41:51.850Z,16.27
2023-04-02T03:45:00.115Z,16.85
2023-04-02T03:47:36.629Z,12.80
2023-04-02T03:50:07.490Z,11.50
2023-04-02T03:52:37.300Z,14.38
2023-04-02T03:55:14.362Z,11.97
2023-04-02T03:57:47.930Z,11.45
2023-04-02T04:00:22.648Z,10.95
2023-04-02T04:03:02.455Z,10.23
2023-04-02T04:05:36.223Z,6.45
2023-04-02T04:08:07.188Z,8.87
2023-04-02T04:10:35.045Z,8.55
2023-04-02T04:13:08.641Z,8.40
2023-04-02T04:15:54.910Z,10.85
2023-04-02T04:18:33.571Z,9.93
2023-04-02T04:21:03.444Z,13.30
2023-04-02T04:23:38.381Z,11.00
2023-04-02T04:26:21.219Z,13.63
2023-04-02T04:29:01.274Z,11.68
2023-04-02T04:31:35.078Z,11.13
2023-04-02T04:34:08.614Z,10.93
2023-04-02T04:36:51.026Z,8.73
2023-04-02T04:39:26.977Z,10.93
2023-04-02T04:41:55.370Z,10.63
2023-04-02T04:44:35.513Z,8.85
2023-04-02T04:47:15.317Z,10.60
2023-04-02T04:49:58.241Z,8.05
2023-04-02T04:52:38.457Z,9.80
2023-04-02T04:55:26.920Z,9.55
2023-04-02T04:58:25.785Z,7.45
2023-04-02T05:01:07.507Z,8.17
2023-04-02T05:03:34.081Z,10.55
2023-04-02T05:06:39.776Z,12.00
2023-04-02T05:09:20.125Z,10.50
2023-04-02T05:11:55.369Z,9.38
2023-04-02T05:14:33.635Z,9.80
2023-04-02T05:17:50.054Z,9.52
2023-04-02T05:20:27.454Z,8.23
2023-04-02T05:23:12.402Z,11.32
2023-04-02T05:25:52.170Z,11.15
2023-04-02T05:28:32.112Z,13.37
2023-04-02T05:31:06.897Z,14.85
2023-04-02T05:33:36.160Z,9.68
2023-04-02T05:36:09.548Z,9.13
2023-04-02T05:38:38.936Z,8.55
2023-04-02T05:41:27.894Z,10.40
2023-04-02T05:44:22.982Z,10.50
2023-04-02T05:46:57.628Z,9.02
2023-04-02T05:49:53.151Z,10.95
2023-04-02T05:52:28.071Z,11.35
2023-04-02T05:55:06.919Z,9.57
2023-04-02T05:57:47.093Z,13.13
2023-04-02T06:00:31.668Z,11.13
2023-04-02T06:03:05.006Z,12.27
2023-04-02T06:05:39.738Z,11.55
2023-04-02T06:08:11.860Z,12.40
2023-04-02T06:10:47.956Z,10.25
2023-04-02T06:13:18.970Z,12.93
2023-04-02T06:15:47.669Z,13.50
2023-04-02T06:18:24.898Z,16.08
2023-04-02T06:20:52.077Z,13.87
2023-04-02T06:23:42.051Z,13.18
2023-04-02T06:26:19.600Z,13.98
2023-04-02T06:29:04.017Z,10.45
2023-04-02T06:31:39.103Z,15.73
2023-04-02T06:34:11.285Z,10.70
2023-04-02T06:36:37.770Z,11.48
2023-04-02T06:39:18.145Z,16.95
2023-04-02T06:41:44.629Z,17.30
2023-04-02T06:44:21.549Z,18.60
2023-04-02T06:46:58.908Z,14.30
2023-04-02T06:49:31.479Z,11.90
2023-04-02T06:52:01.081Z,14.43
2023-04-02T06:54:27.596Z,15.95
2023-04-02T06:56:55.456Z,14.48
2023-04-02T06:59:23.018Z,14.30
2023-04-02T07:01:57.785Z,11.40
2023-04-02T07:04:25.238Z,14.15
2023-04-02T07:06:51.842Z,11.05
2023-04-02T07:09:19.168Z,14.45
2023-04-02T07:11:45.680Z,12.17
2023-04-02T07:14:13.281Z,14.30
2023-04-02T07:16:42.671Z,12.82
2023-04-02T07:19:18.689Z,11.82
2023-04-02T07:21:45.223Z,10.73
2023-04-02T07:24:11.819Z,11.33
2023-04-02T07:26:38.399Z,10.65
2023-04-02T07:29:08.753Z,9.88
2023-04-02T07:31:35.454Z,12.27
2023-04-02T07:34:02.101Z,8.90
2023-04-02T07:36:29.502Z,13.47
2023-04-02T07:38:56.022Z,8.68
2023-04-02T07:41:22.600Z,11.23
2023-04-02T07:43:49.171Z,12.13
2023-04-02T07:46:15.754Z,10.73
2023-04-02T07:48:43.569Z,10.17
2023-04-02T07:51:24.981Z,8.73
2023-04-02T07:53:52.237Z,9.45
2023-04-02T07:56:19.680Z,10.73
2023-04-02T07:58:46.725Z,8.15
2023-04-02T08:01:27.741Z,9.53
2023-04-02T08:03:56.668Z,9.50
2023-04-02T08:06:24.128Z,9.23
2023-04-02T08:08:50.994Z,7.40
2023-04-02T08:11:17.516Z,9.32
2023-04-02T08:13:44.453Z,7.70
2023-04-02T08:16:11.495Z,7.43
2023-04-02T08:18:38.643Z,9.45
2023-04-02T08:21:10.343Z,6.40
2023-04-02T08:23:37.397Z,7.05
2023-04-02T08:26:04.718Z,6.70
2023-04-02T08:28:31.281Z,8.05
2023-04-02T08:30:57.741Z,8.00
2023-04-02T08:33:24.334Z,5.75
2023-04-02T08:35:50.924Z,5.25
2023-04-02T08:38:19.287Z,5.83
2023-04-02T08:40:49.579Z,8.85
2023-04-02T08:43:18.749Z,6.00
2023-04-02T08:45:54.215Z,6.97
2023-04-02T08:48:20.891Z,4.95
2023-04-02T08:50:47.451Z,6.23
2023-04-02T08:53:19.420Z,5.22
2023-04-02T08:55:58.668Z,5.45
2023-04-02T08:58:39.815Z,6.13
2023-04-02T09:01:09.896Z,5.93
2023-04-02T09:03:42.669Z,5.90
2023-04-02T09:06:13.408Z,4.97
2023-04-02T09:08:43.901Z,5.63
2023-04-02T09:11:13.092Z,5.70
2023-04-02T09:13:45.720Z,5.30
2023-04-02T09:16:16.214Z,4.33
2023-04-02T09:18:44.835Z,4.22
2023-04-02T09:21:20.736Z,5.45
2023-04-02T09:23:47.920Z,5.38
2023-04-02T09:26:22.889Z,5.53
2023-04-02T09:28:59.591Z,5.40
2023-04-02T09:31:34.280Z,4.72
2023-04-02T09:34:00.776Z,5.20
2023-04-02T09:36:38.145Z,4.65
2023-04-02T09:39:12.109Z,4.00
2023-04-02T09:41:38.637Z,3.90
2023-04-02T09:44:34.658Z,3.30
2023-04-02T09:47:06.825Z,3.35
2023-04-02T09:49:36.817Z,4.20
2023-04-02T09:52:28.856Z,3.58
2023-04-02T09:55:07.557Z,4.03
2023-04-02T09:57:34.134Z,3.58
2023-04-02T10:00:30.663Z,3.67
2023-04-02T10:03:21.969Z,3.33
2023-04-02T10:05:49.092Z,3.65
2023-04-02T10:08:21.298Z,3.60
2023-04-02T10:10:53.465Z,3.38
2023-04-02T10:13:51.235Z,3.83
2023-04-02T10:16:27.267Z,3.20
2023-04-02T10:19:14.393Z,4.13
2023-04-02T10:21:43.286Z,3.53
2023-04-02T10:24:14.885Z,3.08
2023-04-02T10:27:06.010Z,4.20
2023-04-02T10:29:49.852Z,3.35
2023-04-02T10:32:35.297Z,3.03
2023-04-02T10:35:03.301Z,3.43
2023-04-02T10:37:32.851Z,2.63
2023-04-02T10:40:26.028Z,3.15
2023-04-02T10:43:30.614Z,3.70
2023-04-02T10:46:03.162Z,4.13
2023-04-02T10:48:56.835Z,3.40
2023-04-02T10:51:53.441Z,3.08
2023-04-02T10:54:19.900Z,3.60
2023-04-02T10:56:50.937Z,4.13
2023-04-02T10:59:30.044Z,3.60
2023-04-02T11:02:01.358Z,2.63
2023-04-02T11:04:33.212Z,3.55
2023-04-02T11:07:15.038Z,4.50
2023-04-02T11:09:45.239Z,3.45
2023-04-02T11:12:41.724Z,4.47
2023-04-02T11:15:17.088Z,3.80
2023-04-02T11:17:45.353Z,3.95
2023-04-02T11:20:48.879Z,3.42
2023-04-02T11:23:19.201Z,3.78
2023-04-02T11:25:46.550Z,3.95
2023-04-02T11:28:19.092Z,3.60
2023-04-02T11:30:48.532Z,3.88
2023-04-02T11:33:44.796Z,3.70
2023-04-02T11:36:49.946Z,3.25
2023-04-02T11:39:46.042Z,4.15
2023-04-02T11:42:18.306Z,2.83
2023-04-02T11:44:45.221Z,3.00
2023-04-02T11:47:21.801Z,4.28
2023-04-02T11:50:00.949Z,4.07
2023-04-02T11:52:37.647Z,4.07
2023-04-02T11:55:24.114Z,3.63
2023-04-02T11:58:15.127Z,3.08
2023-04-02T12:01:07.650Z,3.47
2023-04-02T12:03:52.714Z,4.38
2023-04-02T12:06:38.562Z,3.30
2023-04-02T12:09:23.200Z,3.40
2023-04-02T12:11:52.063Z,4.10
2023-04-02T12:14:37.777Z,3.60
2023-04-02T12:17:15.278Z,3.45
2023-04-02T12:19:47.807Z,2.95
2023-04-02T12:22:23.863Z,2.97
2023-04-02T12:24:51.248Z,3.83
2023-04-02T12:27:20.925Z,3.15
2023-04-02T12:29:47.390Z,3.08
2023-04-02T12:32:31.597Z,3.40
2023-04-02T12:34:58.986Z,3.03
2023-04-02T12:37:28.330Z,3.25
2023-04-02T12:39:58.638Z,3.40
2023-04-02T12:42:43.262Z,3.25
2023-04-02T12:45:30.889Z,3.35
2023-04-02T12:48:00.670Z,3.73
2023-04-02T12:50:27.254Z,3.47
2023-04-02T12:52:55.328Z,3.58
2023-04-02T12:55:24.659Z,2.83
2023-04-02T12:57:59.199Z,5.13
2023-04-02T13:00:25.640Z,2.60
2023-04-02T13:03:00.463Z,4.18
2023-04-02T13:05:46.810Z,4.85
2023-04-02T13:08:45.584Z,4.55
2023-04-02T13:11:12.110Z,4.80
2023-04-02T13:13:41.672Z,3.93
2023-04-02T13:16:17.227Z,3.15
2023-04-02T13:18:47.368Z,3.60
2023-04-02T13:21:16.804Z,4.05
2023-04-02T13:23:44.384Z,3.08
2023-04-02T13:26:22.955Z,3.27
2023-04-02T13:28:59.997Z,3.50
2023-04-02T13:31:27.068Z,3.45
2023-04-02T13:33:53.536Z,3.30
2023-04-02T13:36:20.948Z,4.25
2023-04-02T13:38:47.436Z,4.50
2023-04-02T13:41:36.690Z,3.00
2023-04-02T13:44:03.485Z,2.67
2023-04-02T13:46:32.476Z,4.03
2023-04-02T13:48:59.070Z,3.78
2023-04-02T13:51:47.294Z,4.00
2023-04-02T13:54:27.187Z,2.25
2023-04-02T13:56:55.881Z,3.58
2023-04-02T13:59:22.773Z,3.05
2023-04-02T14:01:51.594Z,2.80
2023-04-02T14:04:26.079Z,2.77
2023-04-02T14:07:14.346Z,4.30
2023-04-02T14:09:53.258Z,3.28
2023-04-02T14:12:47.621Z,3.65
2023-04-02T14:15:25.021Z,2.95
2023-04-02T14:18:31.360Z,2.87
2023-04-02T14:21:35.066Z,3.20
2023-04-02T14:24:10.480Z,2.83
2023-04-02T14:26:55.296Z,3.50
2023-04-02T14:29:30.532Z,4.25
2023-04-02T14:32:18.725Z,2.60
2023-04-02T14:35:03.078Z,3.10
2023-04-02T14:37:38.504Z,3.55
2023-04-02T14:40:27.197Z,2.97
2023-04-02T14:43:04.906Z,3.35
2023-04-02T14:45:58.568Z,3.33
2023-04-02T14:48:49.462Z,3.03
2023-04-02T14:51:24.809Z,3.72
2023-04-02T14:54:12.629Z,3.92
2023-04-02T14:56:49.407Z,3.13
2023-04-02T14:59:39.285Z,2.90
2023-04-02T15:02:30.264Z,3.53
2023-04-02T15:05:27.842Z,4.35
2023-04-02T15:08:07.512Z,4.45
2023-04-02T15:10:40.973Z,4.78
2023-04-02T15:13:21.334Z,4.37
2023-04-02T15:16:11.732Z,3.20
2023-04-02T15:18:38.428Z,4.47
2023-04-02T15:21:19.955Z,4.00
2023-04-02T15:24:04.121Z,4.18
2023-04-02T15:26:30.545Z,3.40
2023-04-02T15:29:15.828Z,5.25
2023-04-02T15:31:51.304Z,2.85
2023-04-02T15:34:20.535Z,3.90
2023-04-02T15:37:07.572Z,3.90
2023-04-02T15:40:00.260Z,3.30
2023-04-02T15:42:34.349Z,3.42
2023-04-02T15:45:07.018Z,4.28
2023-04-02T15:47:36.933Z,4.05
2023-04-02T15:50:22.052Z,3.53
2023-04-02T15:52:59.038Z,4.40
2023-04-02T15:55:49.277Z,3.42
2023-04-02T15:58:55.560Z,4.00
2023-04-02T16:01:43.693Z,4.30
2023-04-02T16:04:28.963Z,3.50
2023-04-02T16:07:14.252Z,3.47
2023-04-02T16:10:00.265Z,3.22
2023-04-02T16:12:29.445Z,3.47
2023-04-02T16:15:02.950Z,4.00
2023-04-02T16:17:36.138Z,3.03
2023-04-02T16:20:39.634Z,4.27
2023-04-02T16:23:20.413Z,4.60
2023-04-02T16:25:52.787Z,4.95
2023-04-02T16:28:40.763Z,5.47
2023-04-02T16:31:22.465Z,6.53
2023-04-02T16:34:06.984Z,8.40
2023-04-02T16:36:52.712Z,8.75
2023-04-02T16:39:22.026Z,9.88
2023-04-02T16:42:03.402Z,10.68
2023-04-02T16:44:29.906Z,7.70
2023-04-02T16:47:05.733Z,4.73
2023-04-02T16:49:35.295Z,5.40
2023-04-02T16:52:20.185Z,4.55
2023-04-02T16:55:05.078Z,5.50
2023-04-02T16:57:43.458Z,6.95
2023-04-02T17:00:37.729Z,4.40
2023-04-02T17:03:43.358Z,4.93
2023-04-02T17:06:30.964Z,5.47
2023-04-02T17:09:39.116Z,4.15
2023-04-02T17:12:20.398Z,3.67
2023-04-02T17:14:59.431Z,4.43
2023-04-02T17:17:26.126Z,6.30
2023-04-02T17:19:58.609Z,5.43
2023-04-02T17:22:25.207Z,6.43
2023-04-02T17:24:55.757Z,4.55
2023-04-02T17:27:35.474Z,5.10
2023-04-02T17:30:15.506Z,5.97
2023-04-02T17:32:42.015Z,4.55
2023-04-02T17:35:26.861Z,5.55
2023-04-02T17:38:08.252Z,5.85
2023-04-02T17:40:58.448Z,6.10
2023-04-02T17:43:42.465Z,5.32
2023-04-02T17:46:36.633Z,4.50
2023-04-02T17:49:38.140Z,4.97
2023-04-02T17:52:22.179Z,5.00
2023-04-02T17:55:04.508Z,5.10
2023-04-02T17:57:58.561Z,5.30
2023-04-02T18:00:46.377Z,5.90
2023-04-02T18:03:42.401Z,4.72
2023-04-02T18:06:31.793Z,5.68
2023-04-02T18:09:17.663Z,5.90
2023-04-02T18:11:50.672Z,5.57
2023-04-02T18:14:46.413Z,5.57
2023-04-02T18:17:52.992Z,6.07
2023-04-02T18:20:38.368Z,7.75
2023-04-02T18:23:19.889Z,8.00
2023-04-02T18:26:02.099Z,7.25
2023-04-02T18:28:44.421Z,6.00
2023-04-02T18:31:27.212Z,5.97
2023-04-02T18:34:25.788Z,5.43
2023-04-02T18:37:13.808Z,5.67
2023-04-02T18:40:11.213Z,3.95
2023-04-02T18:42:40.406Z,4.55
2023-04-02T18:45:13.993Z,3.97
2023-04-02T18:47:43.631Z,5.65
2023-04-02T18:50:35.168Z,3.50
2023-04-02T18:53:13.633Z,4.90
2023-04-02T18:55:46.237Z,5.07
2023-04-02T18:58:24.730Z,3.92
2023-04-02T19:00:53.794Z,5.55
2023-04-02T19:03:27.982Z,4.10
2023-04-02T19:06:17.598Z,4.32
2023-04-02T19:08:53.923Z,4.13
2023-04-02T19:11:23.083Z,4.40
2023-04-02T19:13:49.806Z,4.78
2023-04-02T19:16:48.837Z,3.97
2023-04-02T19:19:29.076Z,4.30
2023-04-02T19:22:35.125Z,5.53
2023-04-02T19:25:26.628Z,4.13
2023-04-02T19:28:00.669Z,4.90
2023-04-02T19:30:42.932Z,3.97
2023-04-02T19:33:27.536Z,4.55
2023-04-02T19:36:00.516Z,5.22
2023-04-02T19:38:59.620Z,3.00
2023-04-02T19:41:31.824Z,3.72
2023-04-02T19:43:58.698Z,3.73
2023-04-02T19:46:26.491Z,3.95
2023-04-02T19:49:14.289Z,4.78
2023-04-02T19:51:40.809Z,3.55
2023-04-02T19:54:07.271Z,6.90
2023-04-02T19:56:33.797Z,5.23
2023-04-02T19:59:07.720Z,4.32
2023-04-02T20:01:43.461Z,4.47
2023-04-02T20:04:10.022Z,5.45
2023-04-02T20:06:36.644Z,5.63
2023-04-02T20:09:03.697Z,5.27
2023-04-02T20:11:30.232Z,4.85
2023-04-02T20:13:56.787Z,4.88
2023-04-02T20:16:23.537Z,4.47
2023-04-02T20:18:51.108Z,5.93
2023-04-02T20:21:17.616Z,6.13
2023-04-02T20:23:44.087Z,5.80
2023-04-02T20:26:10.950Z,5.30
2023-04-02T20:28:37.478Z,4.32
2023-04-02T20:31:16.634Z,5.13
2023-04-02T20:33:43.799Z,4.67
2023-04-02T20:36:13.477Z,5.50
2023-04-02T20:38:40.527Z,4.28
2023-04-02T20:41:07.887Z,4.70
2023-04-02T20:43:34.793Z,5.15
2023-04-02T20:46:03.851Z,5.63
2023-04-02T20:48:31.596Z,6.05
2023-04-02T20:51:00.155Z,5.63
2023-04-02T20:53:29.272Z,6.72
2023-04-02T20:56:15.899Z,7.20
2023-04-02T20:58:43.462Z,6.67
2023-04-02T21:01:25.937Z,6.70
2023-04-02T21:04:03.120Z,6.60
2023-04-02T21:06:31.735Z,7.35
2023-04-02T21:08:58.977Z,6.30
2023-04-02T21:11:25.509Z,6.50
2023-04-02T21:13:52.483Z,5.88
2023-04-02T21:16:24.099Z,6.60
2023-04-02T21:18:52.306Z,6.90
2023-04-02T21:21:20.315Z,5.70
2023-04-02T21:23:47.433Z,9.33
2023-04-02T21:26:16.735Z,6.95
2023-04-02T21:28:44.873Z,8.23
2023-04-02T21:31:16.617Z,7.78
2023-04-02T21:33:54.283Z,8.40
2023-04-02T21:36:22.529Z,7.97
2023-04-02T21:38:51.867Z,8.20
2023-04-02T21:41:23.841Z,7.00
2023-04-02T21:43:50.740Z,7.00
2023-04-02T21:46:21.523Z,7.03
2023-04-02T21:48:49.820Z,7.63
2023-04-02T21:51:19.276Z,7.47
2023-04-02T21:53:45.867Z,6.78
2023-04-02T21:56:17.988Z,7.03
2023-04-02T21:58:45.985Z,6.00
2023-04-02T22:01:23.797Z,6.77
2023-04-02T22:03:54.639Z,7.90
2023-04-02T22:06:22.727Z,8.40
2023-04-02T22:08:57.976Z,6.88
2023-04-02T22:11:27.709Z,6.95
2023-04-02T22:13:54.495Z,6.97
2023-04-02T22:16:23.776Z,6.20
2023-04-02T22:18:52.229Z,7.10
2023-04-02T22:21:19.633Z,6.97
2023-04-02T22:23:47.275Z,5.90
2023-04-02T22:26:16.071Z,6.40
2023-04-02T22:28:42.872Z,5.85
2023-04-02T22:31:16.028Z,6.05
2023-04-02T22:33:44.995Z,5.72
2023-04-02T22:36:12.685Z,6.00
2023-04-02T22:38:41.955Z,8.20
2023-04-02T22:41:13.804Z,7.97
2023-04-02T22:43:42.215Z,6.93
2023-04-02T22:46:09.793Z,8.75
2023-04-02T22:48:36.768Z,8.05
2023-04-02T22:51:03.394Z,7.53
2023-04-02T22:53:29.923Z,7.72
2023-04-02T22:56:02.512Z,7.22
2023-04-02T22:58:29.097Z,6.75
2023-04-02T23:00:55.570Z,7.18
2023-04-02T23:03:22.079Z,7.47
2023-04-02T23:05:58.998Z,7.97
2023-04-02T23:08:25.563Z,8.20
2023-04-02T23:11:01.016Z,8.20
2023-04-02T23:13:28.150Z,7.50
2023-04-02T23:15:54.873Z,7.97
2023-04-02T23:18:23.181Z,8.57
2023-04-02T23:20:49.656Z,8.27
2023-04-02T23:23:16.119Z,7.57
2023-04-02T23:25:42.671Z,8.45
2023-04-02T23:28:10.422Z,7.50
2023-04-02T23:30:37.157Z,9.07
2023-04-02T23:33:04.832Z,7.22
2023-04-02T23:35:31.378Z,8.05
2023-04-02T23:37:57.891Z,7.38
2023-04-02T23:40:24.420Z,7.73
2023-04-02T23:42:50.911Z,7.40
2023-04-02T23:45:17.377Z,8.13
2023-04-02T23:47:43.915Z,6.70
2023-04-02T23:50:10.777Z,6.93
2023-04-02T23:52:37.300Z,6.80
2023-04-02T23:55:04.063Z,6.95
2023-04-02T23:57:30.600Z,6.30
2023-04-02T23:59:57.192Z,6.95
